Time;durP1;ratioP1;P1;durP2;ratioP2;P2;SDS_P1;SDS_P2;PMS_P1;PMS_P2;Temp;Humidity;BMP_temperature;BMP_pressure;BME280_temperature;BME280_humidity;BME280_pressure;Samples;Min_cycle;Max_cycle;Signal;HPM_P1;HPM_P2
2022/12/17 13:08:08;;;;;;;13.73;6.95;;;;;;;-1.26;77.92;99805.09;5089938;28;20078;-49
2022/12/17 13:10:35;;;;;;;14.25;6.70;;;;;;;-1.25;77.74;99803.38;5095055;28;20043;-51
2022/12/17 13:13:39;;;;;;;19.08;8.07;;;;;;;-1.24;77.92;99805.09;5092394;28;20123;-49
2022/12/17 13:16:43;;;;;;;18.67;8.80;;;;;;;-1.20;78.08;99809.44;5027090;28;20053;-48
2022/12/17 13:19:34;;;;;;;20.42;8.52;;;;;;;-1.20;78.09;99804.34;5033061;28;20065;-47
2022/12/17 13:22:15;;;;;;;14.60;7.32;;;;;;;-1.20;77.88;99805.16;5030274;28;20106;-47
2022/12/17 13:24:47;;;;;;;13.70;7.40;;;;;;;-1.39;77.94;99780.25;5025526;28;20128;-49
2022/12/17 13:27:37;;;;;;;13.13;7.32;;;;;;;-1.23;77.94;99812.78;5030197;28;20066;-48
2022/12/17 13:30:21;;;;;;;;;;;;;;;-1.22;78.26;99808.56;5023574;28;20045;-46
2022/12/17 13:32:50;;;;;;;12.68;5.65;;;;;;;-1.31;78.16;99806.72;5007246;28;19964;-47
2022/12/17 13:35:16;;;;;;;15.23;6.53;;;;;;;-1.37;78.01;99816.84;5032485;28;20034;-46
2022/12/17 13:38:06;;;;;;;15.55;7.72;;;;;;;-1.35;78.00;99826.22;5026919;28;20056;-47
2022/12/17 13:41:02;;;;;;;12.20;6.60;;;;;;;-1.34;78.33;99820.28;4974489;28;20038;-46
2022/12/17 13:43:36;;;;;;;17.05;8.20;;;;;;;-1.51;77.68;99797.91;5009544;28;20090;-50
2022/12/17 13:46:02;;;;;;;14.95;7.18;;;;;;;-1.32;78.08;99816.06;5042985;28;20087;-46
2022/12/17 13:48:29;;;;;;;14.82;7.18;;;;;;;-1.31;77.99;99806.72;5025910;28;20509;-45
2022/12/17 13:51:00;;;;;;;17.10;7.13;;;;;;;-1.28;77.87;99799.13;5076955;28;20052;-46
2022/12/17 13:53:28;;;;;;;15.88;6.88;;;;;;;-1.58;78.08;99745.13;5101110;28;20131;-47
2022/12/17 13:55:56;;;;;;;13.30;6.85;;;;;;;-1.33;78.04;99788.00;5069012;28;20044;-48
2022/12/17 13:58:32;;;;;;;15.75;6.88;;;;;;;-1.32;78.22;99793.13;5087299;28;20765;-48
2022/12/17 14:01:09;;;;;;;15.90;7.25;;;;;;;-1.30;78.24;99790.56;5063265;28;20036;-49
2022/12/17 14:03:36;;;;;;;16.67;7.72;;;;;;;-1.29;78.07;99787.19;5094458;28;20039;-50
2022/12/17 14:06:07;;;;;;;13.68;7.60;;;;;;;-1.28;78.27;99776.16;5102158;28;20046;-54
2022/12/17 14:08:33;;;;;;;17.00;7.60;;;;;;;-1.34;77.81;99760.78;5080268;28;20056;-47
2022/12/17 14:13:45;;;;;;;14.32;7.60;;;;;;;-1.42;77.98;99730.06;5087103;28;20341;-49
2022/12/17 14:16:18;;;;;;;14.23;6.72;;;;;;;-1.22;78.00;99758.41;5102030;28;20035;-47
2022/12/17 14:18:53;;;;;;;13.10;6.72;;;;;;;-1.30;78.17;99758.28;5083557;28;20067;-45
2022/12/17 14:21:19;;;;;;;12.93;6.32;;;;;;;-1.32;78.26;99759.09;5083770;28;20621;-51
2022/12/17 14:23:47;;;;;;;16.55;7.82;;;;;;;-1.39;78.28;99765.81;5079830;28;20036;-49
2022/12/17 14:26:14;;;;;;;12.90;6.45;;;;;;;-1.36;78.41;99768.38;5081172;28;20055;-46
2022/12/17 14:28:49;;;;;;;16.05;6.72;;;;;;;-1.38;78.35;99772.63;5061014;28;20547;-47
2022/12/17 14:31:27;;;;;;;14.48;7.22;;;;;;;-1.38;78.52;99780.28;5090968;28;20151;-46
2022/12/17 14:34:07;;;;;;;14.93;7.20;;;;;;;-1.38;78.42;99772.63;5092283;28;20036;-46
2022/12/17 14:36:35;;;;;;;15.75;7.85;;;;;;;-1.38;78.47;99782.81;5084074;28;20042;-48
2022/12/17 14:39:09;;;;;;;17.73;7.78;;;;;;;-1.40;78.29;99773.41;5084108;28;20048;-46
2022/12/17 14:44:24;;;;;;;16.23;7.25;;;;;;;-1.42;78.53;99753.03;5079491;28;20070;-45
2022/12/17 14:46:52;;;;;;;14.95;7.82;;;;;;;-1.43;78.72;99770.84;5082673;28;20040;-48
2022/12/17 14:49:20;;;;;;;12.98;6.45;;;;;;;-1.45;78.68;99763.16;5065442;28;20043;-50
2022/12/17 14:51:47;;;;;;;14.93;7.07;;;;;;;-1.49;78.47;99758.84;5091502;28;20085;-48
2022/12/17 14:54:24;;;;;;;14.07;7.40;;;;;;;-1.48;78.53;99757.16;5091267;28;20364;-44
2022/12/17 14:56:53;;;;;;;15.05;7.45;;;;;;;-1.53;78.48;99762.22;5077152;28;20055;-48
2022/12/17 14:59:35;;;;;;;15.07;7.65;;;;;;;-1.53;78.42;99761.34;5078619;28;20049;-50
2022/12/17 15:02:12;;;;;;;16.98;6.95;;;;;;;-1.75;78.61;99727.88;5087993;28;20062;-46
2022/12/17 15:04:38;;;;;;;15.82;7.53;;;;;;;-1.60;78.56;99769.72;5084072;28;20040;-47
2022/12/17 15:07:05;;;;;;;18.85;7.15;;;;;;;-1.60;78.42;99773.13;5088671;28;20780;-44
2022/12/17 15:09:36;;;;;;;16.55;8.15;;;;;;;-1.59;78.39;99762.09;5085189;28;20125;-46
2022/12/17 15:12:03;;;;;;;14.25;7.22;;;;;;;-1.62;78.38;99754.41;5092030;28;20423;-45
2022/12/17 15:14:29;;;;;;;17.98;7.68;;;;;;;-1.84;78.51;99701.41;5087659;28;20144;-44
2022/12/17 15:16:57;;;;;;;16.67;7.50;;;;;;;-1.92;78.81;99678.34;5099322;28;20035;-47
2022/12/17 15:19:24;;;;;;;19.70;7.53;;;;;;;-1.61;78.69;99730.63;5084949;28;20168;-52
2022/12/17 15:21:50;;;;;;;17.42;7.28;;;;;;;-1.61;78.58;99722.97;5068181;28;20062;-45
2022/12/17 15:24:19;;;;;;;15.95;8.13;;;;;;;-1.60;78.77;99716.19;5086524;28;20048;-43
2022/12/17 15:26:45;;;;;;;19.50;7.87;;;;;;;-1.63;78.70;99693.22;5089520;28;20084;-44
2022/12/17 15:29:11;;;;;;;14.15;7.63;;;;;;;-1.64;78.70;99673.66;5094109;28;20046;-45
2022/12/17 15:31:37;;;;;;;17.13;8.07;;;;;;;-1.84;78.79;99648.75;5099603;28;20136;-48
2022/12/17 15:34:03;;;;;;;18.23;7.75;;;;;;;-1.69;78.80;99690.59;5085462;28;20486;-44
2022/12/17 15:36:30;;;;;;;17.10;8.30;;;;;;;-1.68;78.69;99703.34;5086213;28;20046;-45
2022/12/17 15:38:57;;;;;;;18.13;7.90;;;;;;;-1.65;78.75;99710.16;5084770;28;20511;-42
2022/12/17 15:44:07;;;;;;;16.27;8.27;;;;;;;-1.87;79.01;99676.72;5047773;28;20036;-46
2022/12/17 15:46:33;;;;;;;18.10;7.72;;;;;;;-1.62;78.92;99705.97;5067258;28;20067;-48
2022/12/17 15:48:59;;;;;;;16.17;8.20;;;;;;;-1.64;78.86;99700.00;5093785;28;20121;-43
2022/12/17 15:51:25;;;;;;;16.27;7.85;;;;;;;-1.62;79.06;99690.66;5085654;28;20408;-44
2022/12/17 15:53:51;;;;;;;17.95;7.82;;;;;;;-1.61;79.06;99671.16;5070771;28;20068;-43
2022/12/17 15:56:27;;;;;;;16.23;7.68;;;;;;;-1.62;78.93;99665.19;5083611;28;20043;-45
2022/12/17 15:58:57;;;;;;;19.33;8.15;;;;;;;-1.59;78.98;99674.59;5077972;28;20059;-50
2022/12/17 16:01:23;;;;;;;22.30;8.55;;;;;;;-1.56;78.85;99695.00;5084801;28;20039;-46
2022/12/17 16:03:49;;;;;;;16.52;8.57;;;;;;;-1.56;78.76;99705.19;5087190;28;20051;-42
2022/12/17 16:06:15;;;;;;;17.10;8.00;;;;;;;-1.57;79.02;99736.66;5072917;28;20581;-43
2022/12/17 16:08:41;;;;;;;16.27;8.15;;;;;;;-1.54;79.15;99745.19;5097041;28;20043;-42
2022/12/17 16:11:09;;;;;;;22.88;9.45;;;;;;;-1.48;78.78;99745.28;5084379;28;20862;-43
2022/12/17 16:13:35;;;;;;;19.73;8.23;;;;;;;-1.46;78.93;99730.84;5074167;28;20515;-43
2022/12/17 16:16:01;;;;;;;20.95;8.20;;;;;;;-1.45;78.78;99714.72;5083795;28;20036;-42
2022/12/17 16:18:28;;;;;;;17.60;8.55;;;;;;;-1.43;78.79;99735.16;5085302;28;20070;-49
2022/12/17 16:20:54;;;;;;;15.88;8.20;;;;;;;-1.43;78.76;99733.47;5083858;28;20116;-42
2022/12/17 16:23:20;;;;;;;17.92;7.97;;;;;;;-1.76;78.93;99656.50;5090849;28;20040;-44
2022/12/17 16:25:57;;;;;;;19.02;8.52;;;;;;;-1.43;79.04;99697.75;5084717;28;20070;-44
2022/12/17 16:28:23;;;;;;;18.15;8.80;;;;;;;-1.43;78.86;99704.56;5098644;28;20046;-43
2022/12/17 16:31:06;;;;;;;20.75;9.18;;;;;;;-1.63;79.03;99675.38;5104034;28;20047;-42
2022/12/17 16:33:34;;;;;;;20.80;9.05;;;;;;;-1.42;78.77;99714.78;5108951;27;20028;-43
2022/12/17 16:36:00;;;;;;;19.55;9.23;;;;;;;-1.39;78.81;99714.81;5090694;28;20503;-44
2022/12/17 16:38:26;;;;;;;20.13;8.77;;;;;;;-1.38;78.95;99703.78;5081863;28;20048;-45
2022/12/17 16:41:00;;;;;;;20.23;8.70;;;;;;;-1.38;78.75;99691.03;5092480;28;20396;-44
2022/12/17 16:43:27;;;;;;;19.02;8.48;;;;;;;-1.39;78.43;99707.16;5098004;28;20127;-43
2022/12/17 16:45:53;;;;;;;16.98;8.45;;;;;;;-1.39;78.76;99707.16;5097187;28;20031;-42
2022/12/17 16:48:21;;;;;;;17.88;9.13;;;;;;;-1.37;78.69;99697.00;5087578;28;20047;-44
2022/12/17 16:50:47;;;;;;;17.80;9.07;;;;;;;-1.35;78.57;99692.75;5085620;28;20177;-43
2022/12/17 16:53:14;;;;;;;19.95;8.75;;;;;;;-1.31;78.68;99686.88;5085419;28;20040;-43
2022/12/17 16:55:40;;;;;;;23.27;8.93;;;;;;;-1.29;78.68;99683.50;5077009;28;20035;-46
2022/12/17 16:58:07;;;;;;;20.77;9.75;;;;;;;-1.29;78.78;99680.94;5084894;28;20481;-44
2022/12/17 17:00:33;;;;;;;21.23;8.93;;;;;;;-1.27;78.55;99690.31;5082889;28;20068;-45
2022/12/17 17:02:59;;;;;;;18.52;8.88;;;;;;;-1.32;78.61;99688.56;5084633;28;20048;-47
2022/12/17 17:05:25;;;;;;;22.25;9.02;;;;;;;-1.34;78.56;99680.03;5083567;28;20109;-46
2022/12/17 17:07:51;;;;;;;20.27;9.23;;;;;;;-1.34;78.67;99690.22;5084955;28;20047;-49
2022/12/17 17:10:17;;;;;;;21.55;9.25;;;;;;;-1.35;78.40;99685.09;5084784;28;20043;-44
2022/12/17 17:12:43;;;;;;;20.00;9.23;;;;;;;-1.60;78.40;99655.88;5084623;28;20044;-47
2022/12/17 17:15:09;;;;;;;18.70;9.13;;;;;;;-1.48;78.42;99668.81;5070355;28;20089;-43
2022/12/17 17:17:35;;;;;;;16.90;9.07;;;;;;;-1.49;78.58;99663.69;5087449;28;20036;-45
2022/12/17 17:20:01;;;;;;;19.15;8.68;;;;;;;-1.44;78.51;99656.94;5089611;28;20047;-45
2022/12/17 17:22:28;;;;;;;21.30;10.02;;;;;;;-1.60;78.55;99627.84;5054712;28;20044;-46
2022/12/17 17:24:54;;;;;;;19.27;8.90;;;;;;;-1.59;78.71;99633.81;5089627;28;20085;-46
2022/12/17 17:27:20;;;;;;;22.80;9.50;;;;;;;-1.38;78.66;99657.88;5087906;28;20036;-45
2022/12/17 17:29:45;;;;;;;19.77;8.32;;;;;;;-1.38;78.86;99641.72;5093647;28;20140;-45
2022/12/17 17:32:11;;;;;;;20.75;9.30;;;;;;;-1.33;78.64;99645.19;5068966;28;20515;-44
2022/12/17 17:34:38;;;;;;;22.40;9.75;;;;;;;-1.51;78.58;99611.81;5097011;28;20109;-52
2022/12/17 17:37:04;;;;;;;21.10;10.18;;;;;;;-1.32;78.94;99629.06;5092905;28;20035;-45
2022/12/17 17:39:31;;;;;;;20.85;9.27;;;;;;;-1.26;78.50;99620.63;5100729;28;20054;-47
2022/12/17 17:41:57;;;;;;;18.85;9.13;;;;;;;-1.30;78.94;99612.94;5104250;28;20696;-47
2022/12/17 17:44:24;;;;;;;22.33;9.45;;;;;;;-1.36;78.68;99615.41;5074498;28;20094;-52
2022/12/17 17:46:53;;;;;;;;;;;;;;;-1.39;78.72;99614.50;5091559;28;20051;-49
2022/12/17 17:49:18;;;;;;;15.88;8.05;;;;;;;-1.50;79.04;99619.47;5079559;28;19916;-48
2022/12/17 17:51:44;;;;;;;19.45;8.85;;;;;;;-1.52;78.92;99622.88;5067355;28;20032;-50
2022/12/17 17:54:11;;;;;;;22.67;10.05;;;;;;;-1.78;78.92;99574.09;5054802;28;20070;-50
2022/12/17 17:56:38;;;;;;;23.30;9.50;;;;;;;-1.53;79.01;99611.81;5083634;28;20045;-46
2022/12/17 17:59:06;;;;;;;17.42;8.30;;;;;;;-1.54;79.06;99599.03;5083723;28;20445;-44
2022/12/17 18:01:34;;;;;;;21.88;10.05;;;;;;;-1.60;79.55;99588.75;5075095;28;20044;-44
2022/12/17 18:04:01;;;;;;;19.95;8.73;;;;;;;-1.51;79.32;99601.59;5078336;28;20079;-44
2022/12/17 18:06:28;;;;;;;21.20;9.20;;;;;;;-1.91;79.46;99513.63;5092662;28;20075;-44
2022/12/17 18:08:55;;;;;;;23.38;9.65;;;;;;;-1.72;79.54;99539.34;5077664;28;20130;-44
2022/12/17 18:11:22;;;;;;;19.60;10.07;;;;;;;-1.47;79.73;99581.28;5093257;28;20048;-43
2022/12/17 18:13:55;;;;;;;22.15;9.30;;;;;;;-1.52;79.21;99587.19;5075873;28;20199;-43
2022/12/17 18:16:25;;;;;;;18.85;8.57;;;;;;;-1.75;79.27;99552.06;5075793;28;20526;-46
2022/12/17 18:18:54;;;;;;;21.85;9.90;;;;;;;-1.58;79.73;99587.94;5087548;28;20040;-43
2022/12/17 18:21:20;;;;;;;17.75;8.68;;;;;;;-1.69;79.48;99576.75;5076481;28;20040;-44
2022/12/17 18:23:46;;;;;;;18.65;9.10;;;;;;;-1.61;79.63;99587.91;5089901;28;20059;-43
2022/12/17 18:26:15;;;;;;;25.02;10.57;;;;;;;-1.59;79.84;99586.22;5084998;28;20044;-44
2022/12/17 18:28:42;;;;;;;19.00;9.40;;;;;;;-1.58;79.79;99592.19;5089590;28;20454;-43
2022/12/17 18:31:17;;;;;;;23.17;10.77;;;;;;;-1.87;79.83;99546.78;5078319;28;20046;-42
2022/12/17 18:33:45;;;;;;;20.95;9.93;;;;;;;-1.56;79.80;99601.56;5071516;28;20039;-44
2022/12/17 18:36:14;;;;;;;23.67;10.50;;;;;;;-1.56;80.05;99595.59;5093378;28;20062;-43
2022/12/17 18:38:41;;;;;;;24.42;10.07;;;;;;;-1.54;79.84;99589.69;5088856;28;20036;-43
2022/12/17 18:44:11;;;;;;;25.48;9.82;;;;;;;-1.49;80.14;99602.50;5064089;28;20052;-43
2022/12/17 18:46:38;;;;;;;21.30;9.32;;;;;;;-1.48;80.25;99597.44;5083111;28;20503;-43
2022/12/17 18:49:06;;;;;;;22.42;9.48;;;;;;;-1.48;80.43;99586.38;5067806;28;20040;-42
2022/12/17 18:51:36;;;;;;;23.88;10.40;;;;;;;-1.65;80.52;99565.75;5086851;28;20067;-45
2022/12/17 18:54:05;;;;;;;22.48;10.05;;;;;;;-1.45;80.59;99581.28;5089532;28;20526;-43
2022/12/17 18:56:32;;;;;;;22.98;10.05;;;;;;;-1.61;80.53;99557.31;5093596;28;20526;-44
2022/12/17 18:58:58;;;;;;;20.30;9.65;;;;;;;-1.45;81.11;99588.94;5087062;28;20179;-45
2022/12/17 19:01:26;;;;;;;23.90;9.82;;;;;;;-1.46;80.70;99577.03;5083674;28;20047;-46
2022/12/17 19:03:52;;;;;;;25.35;9.68;;;;;;;-1.71;80.47;99538.50;5094434;28;20040;-46
2022/12/17 19:06:19;;;;;;;21.17;9.25;;;;;;;-1.46;80.84;99572.78;5086809;28;20040;-44
2022/12/17 19:08:46;;;;;;;21.15;9.88;;;;;;;-1.61;81.06;99542.03;5083642;28;20051;-44
2022/12/17 19:11:16;;;;;;;20.15;9.02;;;;;;;-1.44;80.80;99565.16;5085730;28;20121;-45
2022/12/17 19:13:43;;;;;;;22.55;9.50;;;;;;;-1.77;81.09;99501.91;5088097;28;20083;-45
2022/12/17 19:16:13;;;;;;;19.80;9.70;;;;;;;-1.42;80.78;99550.75;5094632;28;20051;-44
2022/12/17 19:18:39;;;;;;;21.65;10.10;;;;;;;-1.41;80.69;99557.53;5092704;28;20115;-50
2022/12/17 19:21:07;;;;;;;19.90;9.88;;;;;;;-1.39;80.93;99546.53;5085229;28;20051;-44
2022/12/17 19:23:33;;;;;;;25.27;10.48;;;;;;;-1.37;80.86;99541.47;5084714;28;20431;-44
2022/12/17 19:26:15;;;;;;;21.20;9.70;;;;;;;-1.41;80.94;99538.00;5085815;28;20496;-44
2022/12/17 19:28:43;;;;;;;20.83;9.13;;;;;;;-1.39;80.95;99535.47;5111758;27;20052;-43
2022/12/17 19:31:09;;;;;;;21.92;10.57;;;;;;;-1.38;81.08;99530.41;5093782;28;20032;-45
2022/12/17 19:33:36;;;;;;;19.27;10.02;;;;;;;-1.38;81.09;99532.09;5048285;28;20036;-45
2022/12/17 19:36:07;;;;;;;19.52;8.90;;;;;;;-1.44;81.06;99509.06;5090357;28;20055;-44
2022/12/17 19:38:33;;;;;;;18.45;8.88;;;;;;;-1.39;81.02;99528.69;5083210;28;20431;-46
2022/12/17 19:41:03;;;;;;;18.88;9.25;;;;;;;-1.40;80.96;99531.22;5083577;28;20090;-45
2022/12/17 19:43:31;;;;;;;20.73;9.95;;;;;;;-1.39;80.53;99538.03;5084265;28;20044;-44
2022/12/17 19:46:15;;;;;;;20.63;9.32;;;;;;;-1.55;80.66;99495.34;5079842;28;20093;-44
2022/12/17 19:48:43;;;;;;;23.55;9.73;;;;;;;-1.40;80.75;99518.47;5076509;28;20064;-44
2022/12/17 19:51:10;;;;;;;17.98;9.02;;;;;;;-1.39;80.71;99510.84;5083614;28;20040;-45
2022/12/17 19:53:37;;;;;;;18.08;9.27;;;;;;;-1.55;80.80;99472.41;5106234;27;20040;-45
2022/12/17 19:56:10;;;;;;;19.27;9.77;;;;;;;-1.39;80.61;99502.34;5093613;27;20035;-46
2022/12/17 19:58:38;;;;;;;18.75;9.65;;;;;;;-1.38;80.55;99504.91;5054764;28;20061;-45
2022/12/17 20:01:06;;;;;;;20.23;9.48;;;;;;;-1.39;80.51;99499.78;5104073;28;20055;-46
2022/12/17 20:03:33;;;;;;;17.17;8.38;;;;;;;-1.36;80.40;99492.19;5091615;28;20050;-47
2022/12/17 20:05:59;;;;;;;19.02;9.35;;;;;;;-1.37;80.48;99495.56;5098911;27;20036;-45
2022/12/17 20:08:28;;;;;;;18.58;8.10;;;;;;;-1.34;80.32;99493.03;5076121;28;20089;-47
2022/12/17 20:10:55;;;;;;;18.05;9.13;;;;;;;-1.35;80.26;99501.50;5084442;28;20032;-46
2022/12/17 20:13:20;;;;;;;17.02;9.00;;;;;;;-1.75;80.09;99437.41;5076233;28;20043;-44
2022/12/17 20:15:46;;;;;;;22.20;9.00;;;;;;;-1.40;80.21;99477.66;5067957;28;20036;-48
2022/12/17 20:18:12;;;;;;;18.80;8.85;;;;;;;-1.41;79.98;99473.41;5084527;28;20040;-46
2022/12/17 20:20:38;;;;;;;18.67;8.77;;;;;;;-1.36;80.12;99466.69;5081987;28;20426;-46
2022/12/17 20:23:04;;;;;;;20.77;10.35;;;;;;;-1.45;80.21;99472.53;5083849;28;20424;-47
2022/12/17 20:25:30;;;;;;;18.75;8.98;;;;;;;-1.50;79.98;99466.53;5091288;28;20060;-44
2022/12/17 20:27:56;;;;;;;17.33;8.23;;;;;;;-1.48;79.84;99467.41;5083472;28;20040;-44
2022/12/17 20:30:24;;;;;;;17.20;8.82;;;;;;;-1.71;79.83;99430.63;5102292;27;20040;-46
2022/12/17 20:32:53;;;;;;;18.13;8.65;;;;;;;-1.72;79.91;99414.47;5085605;28;20039;-44
2022/12/17 20:35:20;;;;;;;17.13;8.65;;;;;;;-1.43;79.83;99453.00;5089433;28;20085;-45
2022/12/17 20:37:46;;;;;;;24.70;11.73;;;;;;;-1.40;80.06;99441.97;5083294;28;20511;-46
2022/12/17 20:40:12;;;;;;;28.10;13.65;;;;;;;-1.52;79.91;99418.94;5084572;28;20040;-48
2022/12/17 20:42:38;;;;;;;25.13;12.27;;;;;;;-1.40;79.77;99445.38;5077202;28;20466;-44
2022/12/17 20:45:04;;;;;;;20.60;10.07;;;;;;;-1.59;80.05;99412.06;5096416;28;20040;-45
2022/12/17 20:47:30;;;;;;;20.00;10.50;;;;;;;-1.38;80.04;99442.84;5076990;28;20173;-47
2022/12/17 20:49:56;;;;;;;31.60;13.13;;;;;;;-1.36;79.71;99428.44;5101031;28;20138;-45
2022/12/17 20:52:22;;;;;;;24.40;11.52;;;;;;;-1.36;79.93;99431.81;5076128;28;20048;-44
2022/12/17 20:54:48;;;;;;;20.92;10.25;;;;;;;-1.60;80.16;99379.75;5099137;28;20580;-44
2022/12/17 20:57:14;;;;;;;19.85;9.48;;;;;;;-1.38;80.62;99420.78;5080822;28;20516;-45
2022/12/17 20:59:40;;;;;;;22.73;9.75;;;;;;;-1.53;80.31;99387.50;5069873;28;20075;-47
2022/12/17 21:02:06;;;;;;;23.98;11.73;;;;;;;-1.35;80.40;99400.38;5090159;28;20083;-46
2022/12/17 21:04:32;;;;;;;23.20;9.75;;;;;;;-1.35;80.23;99396.97;5079856;28;20078;-46
2022/12/17 21:06:58;;;;;;;18.73;9.48;;;;;;;-1.41;80.44;99390.13;5069062;28;20051;-46
2022/12/17 21:09:24;;;;;;;16.45;8.13;;;;;;;-1.44;80.20;99386.72;5060560;28;20040;-46
2022/12/17 21:11:50;;;;;;;17.58;8.73;;;;;;;-1.50;80.37;99384.09;5089126;28;20126;-48
2022/12/17 21:14:17;;;;;;;19.08;9.15;;;;;;;-1.55;80.43;99368.78;5080344;28;20044;-51
2022/12/17 21:16:44;;;;;;;19.00;9.60;;;;;;;-1.56;80.64;99364.50;5086266;28;20047;-48
2022/12/17 21:19:15;;;;;;;20.60;9.70;;;;;;;-1.51;80.63;99362.00;5060624;28;20136;-50
2022/12/17 21:21:41;;;;;;;17.08;8.95;;;;;;;-1.55;80.74;99344.97;5121060;27;20481;-44
2022/12/17 21:24:07;;;;;;;16.38;8.57;;;;;;;-1.56;80.68;99343.25;5088295;28;20046;-45
2022/12/17 21:26:35;;;;;;;14.52;7.80;;;;;;;-1.59;80.55;99331.38;5088914;28;20430;-47
2022/12/17 21:29:03;;;;;;;16.13;7.95;;;;;;;-1.58;80.57;99333.09;5080384;28;20554;-49
2022/12/17 21:31:31;;;;;;;18.92;8.75;;;;;;;-1.57;80.69;99333.94;5052524;28;20048;-47
2022/12/17 21:33:59;;;;;;;17.57;8.80;;;;;;;-1.62;80.75;99313.47;5087332;28;20035;-45
2022/12/17 21:36:25;;;;;;;18.98;8.55;;;;;;;-1.61;80.66;99310.09;5085408;28;20539;-45
2022/12/17 21:38:52;;;;;;;19.63;8.90;;;;;;;-1.62;80.61;99293.09;5084398;28;20047;-48
2022/12/17 21:41:21;;;;;;;16.55;8.38;;;;;;;-1.66;80.75;99287.97;5057409;28;20036;-47
2022/12/17 21:43:47;;;;;;;14.83;7.80;;;;;;;-1.69;80.83;99275.22;5073318;28;20059;-44
2022/12/17 21:46:13;;;;;;;15.00;7.88;;;;;;;-1.66;80.88;99275.22;5086575;28;20293;-45
2022/12/17 21:48:40;;;;;;;21.85;8.10;;;;;;;-1.72;80.89;99283.66;5090783;28;20135;-47
2022/12/17 21:51:09;;;;;;;16.60;8.13;;;;;;;-1.72;80.88;99265.84;5086608;28;20051;-46
2022/12/17 21:53:40;;;;;;;17.48;7.63;;;;;;;-1.70;80.97;99271.81;5068749;28;20047;-44
2022/12/17 21:56:17;;;;;;;15.15;7.55;;;;;;;-1.69;80.99;99265.88;5098012;28;20044;-43
2022/12/17 21:58:44;;;;;;;16.67;7.88;;;;;;;-1.67;81.24;99259.06;5092470;28;20067;-45
2022/12/17 22:01:22;;;;;;;15.32;7.80;;;;;;;-1.86;81.28;99240.25;5082598;28;20133;-47
2022/12/17 22:03:49;;;;;;;14.27;7.63;;;;;;;-1.69;80.96;99258.22;5078592;28;20521;-46
2022/12/17 22:06:17;;;;;;;16.35;8.10;;;;;;;-1.69;81.21;99262.47;5059437;28;20048;-45
2022/12/17 22:08:44;;;;;;;15.38;7.72;;;;;;;-1.70;81.28;99253.97;5081918;28;20094;-45
2022/12/17 22:11:15;;;;;;;15.55;6.95;;;;;;;-1.92;81.50;99217.28;5072065;28;20068;-46
2022/12/17 22:16:37;;;;;;;18.60;7.97;;;;;;;-1.67;81.44;99256.53;5088605;28;20086;-45
2022/12/17 22:19:03;;;;;;;16.80;7.45;;;;;;;-1.66;81.40;99259.94;5075328;28;20040;-43
2022/12/17 22:21:34;;;;;;;16.65;7.78;;;;;;;-1.65;81.45;99254.84;5101083;28;20076;-46
2022/12/17 22:24:01;;;;;;;16.48;7.07;;;;;;;-1.65;81.36;99243.81;5101132;28;20042;-46
2022/12/17 22:26:27;;;;;;;13.80;7.18;;;;;;;-1.65;81.79;99246.34;5098451;28;20052;-48
2022/12/17 22:28:53;;;;;;;15.98;8.07;;;;;;;-1.86;81.64;99208.84;5100013;28;20503;-44
2022/12/17 22:34:05;;;;;;;29.10;14.68;;;;;;;-1.64;81.23;99228.53;5111275;28;20114;-47
2022/12/17 22:36:32;;;;;;;14.35;6.78;;;;;;;-1.62;81.56;99229.38;5100040;28;20086;-46
2022/12/17 22:38:59;;;;;;;13.68;7.22;;;;;;;-1.71;81.57;99208.94;5109917;28;20510;-45
2022/12/17 22:44:10;;;;;;;13.15;7.07;;;;;;;-1.65;81.51;99209.00;5079629;28;20036;-45
2022/12/17 22:46:36;;;;;;;13.77;6.82;;;;;;;-1.61;81.25;99214.94;5099660;28;20075;-47
2022/12/17 22:49:02;;;;;;;12.50;6.68;;;;;;;-1.66;81.31;99202.19;5113069;28;20035;-45
2022/12/17 22:51:28;;;;;;;14.02;6.75;;;;;;;-1.92;81.28;99145.97;5109604;28;20043;-46
2022/12/17 22:53:54;;;;;;;13.55;6.50;;;;;;;-1.66;81.50;99181.78;5055255;28;20036;-44
2022/12/17 22:56:20;;;;;;;14.43;6.72;;;;;;;-1.64;81.57;99179.25;5097414;28;20036;-43
2022/12/17 22:58:46;;;;;;;14.52;7.10;;;;;;;-1.62;81.53;99175.03;5111545;28;20056;-46
2022/12/17 23:01:12;;;;;;;12.18;6.32;;;;;;;-1.65;81.39;99164.81;5073341;28;20071;-44
2022/12/17 23:03:38;;;;;;;17.92;7.65;;;;;;;-1.66;81.64;99158.84;5095558;28;20180;-47
2022/12/17 23:06:12;;;;;;;12.93;6.97;;;;;;;-1.87;81.75;99121.38;5073746;28;20039;-45
2022/12/17 23:08:39;;;;;;;12.88;6.70;;;;;;;-1.68;81.79;99141.88;5091685;28;20043;-46
2022/12/17 23:11:06;;;;;;;12.75;6.25;;;;;;;-1.72;81.99;99141.84;5090913;28;20051;-44
2022/12/17 23:13:32;;;;;;;12.20;6.68;;;;;;;-1.69;81.81;99133.38;5090796;27;20101;-46
2022/12/17 23:15:58;;;;;;;12.88;6.10;;;;;;;-1.69;81.67;99129.97;5088895;28;20127;-44
2022/12/17 23:18:24;;;;;;;11.00;6.10;;;;;;;-1.68;81.78;99122.34;5090342;28;20130;-44
2022/12/17 23:20:50;;;;;;;12.88;6.47;;;;;;;-1.72;81.65;99118.91;5089931;28;20523;-45
2022/12/17 23:23:16;;;;;;;11.40;5.53;;;;;;;-1.77;81.68;99107.00;5085512;28;20072;-43
2022/12/17 23:25:42;;;;;;;9.95;5.22;;;;;;;-2.00;81.86;99080.53;5111626;28;20042;-43
2022/12/17 23:28:07;;;;;;;13.55;6.20;;;;;;;-1.99;81.74;99078.00;5091008;28;20447;-46
2022/12/17 23:30:36;;;;;;;12.40;6.28;;;;;;;-1.80;82.06;99097.66;5108532;28;20499;-44
2022/12/17 23:33:02;;;;;;;9.60;5.55;;;;;;;-1.78;82.16;99101.03;5076026;28;20031;-48
2022/12/17 23:35:27;;;;;;;11.00;5.38;;;;;;;-1.79;82.18;99094.25;5110927;28;20043;-43
2022/12/17 23:37:54;;;;;;;11.57;5.82;;;;;;;-2.10;82.07;99048.22;5099295;28;20039;-43
2022/12/17 23:40:20;;;;;;;11.23;5.63;;;;;;;-2.09;82.09;99038.03;5108929;28;20070;-45
2022/12/17 23:42:46;;;;;;;9.10;5.18;;;;;;;-1.98;82.50;99061.88;5100275;28;20048;-45
2022/12/17 23:45:12;;;;;;;12.02;6.07;;;;;;;-1.78;82.31;99085.75;5080426;28;20460;-47
2022/12/17 23:47:39;;;;;;;13.02;5.80;;;;;;;-1.80;82.15;99084.06;5096071;28;20096;-45
2022/12/17 23:50:07;;;;;;;12.25;6.22;;;;;;;-1.82;82.07;99085.72;5096131;28;20077;-45
2022/12/17 23:52:33;;;;;;;12.27;5.93;;;;;;;-1.78;82.17;99078.09;5104875;28;20042;-46
2022/12/17 23:54:59;;;;;;;12.15;6.05;;;;;;;-2.00;82.08;99037.25;5091351;28;20044;-44
2022/12/17 23:57:25;;;;;;;10.45;5.75;;;;;;;-1.82;81.85;99058.56;5091139;28;20040;-44
2022/12/17 23:59:50;;;;;;;12.57;5.53;;;;;;;-1.94;81.86;99048.34;5091025;28;20141;-44
